Time;durP1;ratioP1;P1;durP2;ratioP2;P2;SDS_P1;SDS_P2;PMS_P1;PMS_P2;Temp;Humidity;BMP_temperature;BMP_pressure;BME280_temperature;BME280_humidity;BME280_pressure;Samples;Min_cycle;Max_cycle;Signal;HPM_P1;HPM_P2
2022/01/09 00:00:12;;;;;;;12.45;10.75;;;4.10;99.90;;;;;;5052721;28;20053;-64
2022/01/09 00:02:38;;;;;;;10.98;9.50;;;4.00;99.90;;;;;;5071184;28;20051;-63
2022/01/09 00:05:05;;;;;;;9.13;7.60;;;4.10;99.90;;;;;;5069791;28;20044;-63
2022/01/09 00:07:30;;;;;;;10.27;9.05;;;4.10;99.90;;;;;;5052987;28;20053;-64
2022/01/09 00:09:56;;;;;;;12.93;11.25;;;4.10;99.90;;;;;;5069230;28;20051;-63
2022/01/09 00:12:23;;;;;;;9.73;8.82;;;4.10;99.90;;;;;;5068462;28;20052;-68
2022/01/09 00:14:49;;;;;;;11.38;9.45;;;4.10;99.90;;;;;;5046145;28;20049;-64
2022/01/09 00:17:14;;;;;;;9.85;8.80;;;4.10;99.90;;;;;;5038657;28;20102;-64
2022/01/09 00:19:40;;;;;;;9.88;8.85;;;4.10;99.90;;;;;;5057992;28;20049;-63
2022/01/09 00:22:06;;;;;;;10.10;8.63;;;4.10;99.90;;;;;;5031934;28;20148;-63
2022/01/09 00:24:32;;;;;;;11.65;9.10;;;4.10;99.90;;;;;;5031749;28;20558;-64
2022/01/09 00:26:57;;;;;;;10.73;8.88;;;4.10;99.90;;;;;;5049695;28;20044;-64
2022/01/09 00:29:23;;;;;;;8.48;7.45;;;4.10;99.90;;;;;;5032060;28;20450;-63
2022/01/09 00:31:48;;;;;;;11.23;9.23;;;4.10;99.90;;;;;;5049212;28;20048;-64
2022/01/09 00:34:14;;;;;;;10.07;9.00;;;4.10;99.90;;;;;;5049519;28;20048;-64
2022/01/09 00:36:39;;;;;;;9.23;8.32;;;4.10;99.90;;;;;;5050021;28;20049;-64
2022/01/09 00:39:05;;;;;;;9.90;8.82;;;4.10;99.90;;;;;;5048919;28;20476;-64
2022/01/09 00:41:30;;;;;;;12.13;9.27;;;4.10;99.90;;;;;;5049758;28;20051;-64
2022/01/09 00:43:56;;;;;;;10.57;9.13;;;4.10;99.90;;;;;;5032169;28;20053;-63
2022/01/09 00:46:22;;;;;;;12.35;9.07;;;4.10;99.90;;;;;;5048791;28;20057;-63
2022/01/09 00:48:48;;;;;;;9.80;8.57;;;4.20;99.90;;;;;;5049603;28;20083;-64
2022/01/09 00:51:13;;;;;;;12.20;9.13;;;4.10;99.90;;;;;;5031362;28;20127;-64
2022/01/09 00:53:42;;;;;;;9.85;8.77;;;4.10;99.90;;;;;;5031701;28;20123;-64
2022/01/09 00:56:07;;;;;;;9.10;7.53;;;4.10;99.90;;;;;;5049751;28;20132;-64
2022/01/09 00:58:33;;;;;;;8.55;7.75;;;4.10;99.90;;;;;;5031726;28;20120;-64
2022/01/09 01:00:59;;;;;;;12.38;8.68;;;4.10;99.90;;;;;;5030942;28;20080;-64
2022/01/09 01:03:25;;;;;;;9.30;7.60;;;4.10;99.90;;;;;;5034217;28;20052;-64
2022/01/09 01:05:51;;;;;;;9.73;8.40;;;4.10;99.90;;;;;;5035540;28;20064;-64
2022/01/09 01:08:17;;;;;;;9.00;8.10;;;4.20;99.90;;;;;;5052250;28;20132;-63
2022/01/09 01:10:42;;;;;;;9.40;8.40;;;4.10;99.90;;;;;;5040080;28;20094;-63
2022/01/09 01:13:08;;;;;;;10.18;8.60;;;4.10;99.90;;;;;;5037654;28;20056;-63
2022/01/09 01:15:33;;;;;;;10.32;8.95;;;4.10;99.90;;;;;;5039282;28;20148;-64
2022/01/09 01:17:59;;;;;;;9.07;8.18;;;4.20;99.90;;;;;;5041113;28;20140;-64
2022/01/09 01:20:25;;;;;;;9.85;8.85;;;4.10;99.90;;;;;;5021427;28;20132;-63
2022/01/09 01:22:52;;;;;;;8.95;8.07;;;4.30;99.90;;;;;;5046228;28;20084;-63
2022/01/09 01:25:19;;;;;;;9.45;8.13;;;4.10;99.90;;;;;;5027652;28;20057;-64
2022/01/09 01:27:45;;;;;;;9.32;8.38;;;4.10;99.90;;;;;;5032855;28;20537;-63
2022/01/09 01:30:12;;;;;;;10.75;8.63;;;4.10;99.90;;;;;;5031775;28;20487;-63
2022/01/09 01:32:39;;;;;;;9.98;8.48;;;4.10;99.90;;;;;;5015310;28;20076;-63
2022/01/09 01:35:05;;;;;;;11.75;8.48;;;4.10;99.90;;;;;;5014017;28;20049;-63
2022/01/09 01:37:37;;;;;;;8.45;7.57;;;4.10;99.90;;;;;;5014990;28;20492;-63
2022/01/09 01:40:08;;;;;;;11.02;8.90;;;4.10;99.90;;;;;;5014909;28;20056;-63
2022/01/09 01:42:33;;;;;;;10.07;9.07;;;4.10;99.90;;;;;;5014195;28;20065;-63
2022/01/09 01:44:59;;;;;;;10.13;9.13;;;4.10;99.90;;;;;;5032773;28;20037;-64
2022/01/09 01:47:25;;;;;;;10.25;9.15;;;4.10;99.90;;;;;;5020697;28;20045;-63
2022/01/09 01:49:51;;;;;;;10.48;9.38;;;4.10;99.90;;;;;;5029348;28;20077;-63
2022/01/09 01:52:24;;;;;;;12.07;9.80;;;4.10;99.90;;;;;;5032355;28;20049;-63
2022/01/09 01:54:50;;;;;;;11.35;9.95;;;4.10;99.90;;;;;;5014399;28;20138;-63
2022/01/09 01:57:15;;;;;;;12.27;9.35;;;4.10;99.90;;;;;;5013469;28;20141;-63
2022/01/09 01:59:41;;;;;;;10.40;9.40;;;4.10;99.90;;;;;;5032394;28;20045;-63
2022/01/09 02:02:07;;;;;;;10.63;9.50;;;4.20;99.90;;;;;;5014317;28;20431;-63
2022/01/09 02:04:32;;;;;;;11.23;10.02;;;4.10;99.90;;;;;;5013890;28;20041;-63
2022/01/09 02:06:59;;;;;;;11.30;9.88;;;4.10;99.90;;;;;;5014771;28;20041;-63
2022/01/09 02:09:25;;;;;;;10.20;8.80;;;4.10;99.90;;;;;;5014278;28;20049;-63
2022/01/09 02:11:51;;;;;;;11.77;10.45;;;4.10;99.90;;;;;;5030995;28;20038;-63
2022/01/09 02:14:16;;;;;;;15.45;13.80;;;4.20;99.90;;;;;;5011952;28;20057;-63
2022/01/09 02:16:43;;;;;;;13.13;10.73;;;4.20;99.90;;;;;;5049956;28;20106;-63
2022/01/09 02:19:13;;;;;;;13.82;10.27;;;4.20;99.90;;;;;;5032496;28;20049;-63
2022/01/09 02:21:47;;;;;;;14.02;9.90;;;4.20;99.90;;;;;;5034032;28;20045;-63
2022/01/09 02:24:13;;;;;;;11.68;10.02;;;4.20;99.90;;;;;;5044314;28;20056;-63
2022/01/09 02:26:39;;;;;;;13.05;9.57;;;4.20;99.90;;;;;;5036721;28;20056;-63
2022/01/09 02:29:05;;;;;;;11.20;8.85;;;4.20;99.90;;;;;;5033939;28;20098;-63
2022/01/09 02:31:32;;;;;;;13.02;9.82;;;4.20;99.90;;;;;;5051247;28;20064;-63
2022/01/09 02:33:58;;;;;;;11.43;9.07;;;4.20;99.90;;;;;;5051894;28;20470;-63
2022/01/09 02:36:24;;;;;;;12.55;8.98;;;4.30;99.90;;;;;;5033634;28;20267;-64
2022/01/09 02:38:49;;;;;;;11.73;8.43;;;4.20;99.90;;;;;;5051011;28;20127;-64
2022/01/09 02:41:15;;;;;;;11.45;8.20;;;4.30;99.90;;;;;;5051304;28;20083;-64
2022/01/09 02:43:41;;;;;;;8.38;7.35;;;4.30;99.90;;;;;;5051757;28;20151;-64
2022/01/09 02:48:36;;;;;;;10.90;7.88;;;4.30;99.90;;;;;;5033639;28;20053;-64
2022/01/09 02:51:20;;;;;;;15.20;7.15;;;4.40;99.90;;;;;;5051426;28;20045;-64
2022/01/09 02:53:48;;;;;;;13.18;8.43;;;4.40;99.90;;;;;;5050714;28;20147;-64
2022/01/09 02:56:15;;;;;;;11.80;6.85;;;4.40;99.90;;;;;;5032883;28;20606;-64
2022/01/09 02:58:44;;;;;;;8.45;5.90;;;4.50;99.90;;;;;;5053274;28;20044;-64
2022/01/09 03:01:11;;;;;;;12.10;6.38;;;4.50;99.90;;;;;;5061275;28;20118;-64
2022/01/09 03:03:37;;;;;;;10.38;6.18;;;4.50;99.90;;;;;;5056527;28;20072;-64
2022/01/09 03:06:03;;;;;;;10.20;5.03;;;4.60;99.90;;;;;;5071077;28;20080;-64
2022/01/09 03:08:30;;;;;;;12.93;5.28;;;4.60;99.90;;;;;;5046941;28;20037;-64
2022/01/09 03:10:56;;;;;;;16.83;4.20;;;4.60;99.90;;;;;;5051298;28;20435;-64
2022/01/09 03:13:22;;;;;;;17.10;4.45;;;4.60;99.90;;;;;;5050516;28;20037;-64
2022/01/09 03:15:47;;;;;;;17.13;3.97;;;4.70;99.90;;;;;;5050675;28;20057;-64
2022/01/09 03:18:13;;;;;;;31.67;5.53;;;4.80;99.90;;;;;;5050763;28;20052;-64
2022/01/09 03:20:39;;;;;;;17.55;3.42;;;4.90;99.90;;;;;;5032236;28;20041;-63
2022/01/09 03:23:05;;;;;;;18.67;3.25;;;4.90;99.90;;;;;;5050423;28;20494;-64
2022/01/09 03:25:31;;;;;;;17.65;4.18;;;4.90;99.90;;;;;;5050545;28;20045;-63
2022/01/09 03:27:58;;;;;;;21.80;4.78;;;5.00;99.90;;;;;;5050160;28;20144;-64
2022/01/09 03:30:25;;;;;;;33.78;4.45;;;5.00;99.90;;;;;;5050564;28;20055;-64
2022/01/09 03:32:52;;;;;;;32.22;4.93;;;5.10;99.90;;;;;;5033062;28;20399;-64
2022/01/09 03:35:20;;;;;;;37.20;7.07;;;5.20;99.90;;;;;;5032014;28;20498;-64
2022/01/09 03:37:48;;;;;;;36.92;8.13;;;5.20;99.90;;;;;;5050567;28;20605;-64
2022/01/09 03:40:20;;;;;;;33.28;5.53;;;5.30;99.90;;;;;;5032422;28;20041;-64
2022/01/09 03:42:47;;;;;;;29.02;6.55;;;5.40;99.90;;;;;;5050138;28;20384;-64
2022/01/09 03:45:14;;;;;;;39.72;6.35;;;5.50;99.90;;;;;;5050289;28;20040;-64
2022/01/09 03:47:39;;;;;;;47.22;7.07;;;5.50;99.90;;;;;;5050555;28;20083;-64
2022/01/09 03:50:08;;;;;;;37.30;6.93;;;5.50;99.90;;;;;;5031504;28;20056;-64
2022/01/09 03:52:37;;;;;;;28.17;6.57;;;5.60;99.90;;;;;;5050646;28;20045;-64
2022/01/09 03:55:04;;;;;;;42.03;5.53;;;5.50;99.90;;;;;;5050593;28;20095;-64
2022/01/09 03:57:29;;;;;;;34.35;7.30;;;5.60;99.90;;;;;;5049599;28;20041;-64
2022/01/09 03:59:55;;;;;;;42.10;7.05;;;5.60;99.90;;;;;;5032100;28;20402;-64
2022/01/09 04:02:21;;;;;;;32.78;4.68;;;5.60;99.90;;;;;;5032025;28;20044;-64
2022/01/09 04:04:47;;;;;;;35.75;6.15;;;5.60;99.90;;;;;;5049887;28;20045;-63
2022/01/09 04:07:15;;;;;;;20.95;4.47;;;5.70;99.90;;;;;;5031850;28;20060;-64
2022/01/09 04:09:43;;;;;;;21.83;4.95;;;5.70;99.90;;;;;;5031850;28;20546;-64
2022/01/09 04:12:15;;;;;;;34.28;5.95;;;5.70;99.90;;;;;;5032319;28;20041;-64
2022/01/09 04:14:42;;;;;;;;;;;5.70;99.90;;;;;;5050729;28;20056;-64
2022/01/09 04:17:12;;;;;;;21.95;4.82;;;5.70;99.90;;;;;;5031229;28;19920;-64
2022/01/09 04:19:38;;;;;;;34.45;6.05;;;5.70;99.90;;;;;;5032375;28;20376;-63
2022/01/09 04:22:03;;;;;;;29.55;6.18;;;5.70;99.90;;;;;;5031388;28;20068;-64
2022/01/09 04:24:29;;;;;;;23.05;4.75;;;5.70;99.90;;;;;;5031383;28;20041;-64
2022/01/09 04:26:55;;;;;;;29.02;5.22;;;5.60;99.90;;;;;;5050373;28;20087;-64
2022/01/09 04:29:20;;;;;;;35.15;6.35;;;5.60;99.90;;;;;;5032242;28;20055;-64
2022/01/09 04:31:46;;;;;;;29.10;6.05;;;5.70;99.90;;;;;;5031549;28;20079;-64
2022/01/09 04:34:11;;;;;;;35.67;5.60;;;5.60;99.90;;;;;;5050054;28;20049;-64
2022/01/09 04:36:37;;;;;;;28.58;6.05;;;5.70;99.90;;;;;;5050737;28;20049;-64
2022/01/09 04:39:03;;;;;;;29.40;5.03;;;5.60;99.90;;;;;;5053307;28;20049;-64
2022/01/09 04:41:29;;;;;;;24.38;5.90;;;5.70;99.90;;;;;;5054063;28;20076;-63
2022/01/09 04:43:54;;;;;;;28.95;5.43;;;5.60;99.90;;;;;;5053944;28;20560;-64
2022/01/09 04:46:27;;;;;;;29.00;6.03;;;5.70;99.90;;;;;;5052775;28;20450;-64
2022/01/09 04:48:55;;;;;;;38.15;6.72;;;5.70;99.90;;;;;;5053898;28;20506;-64
2022/01/09 04:51:20;;;;;;;27.77;5.22;;;5.70;99.90;;;;;;5053610;28;20037;-65
2022/01/09 04:53:46;;;;;;;27.95;5.13;;;5.70;99.90;;;;;;5053186;28;20095;-64
2022/01/09 04:56:12;;;;;;;20.70;4.13;;;5.70;99.90;;;;;;5053472;28;20053;-64
2022/01/09 04:58:37;;;;;;;19.40;3.88;;;5.70;99.90;;;;;;5053777;28;20408;-63
2022/01/09 05:01:03;;;;;;;27.58;4.82;;;5.70;99.90;;;;;;5052875;28;20515;-64
2022/01/09 05:03:29;;;;;;;22.10;4.32;;;5.70;99.90;;;;;;5053649;28;20477;-63
2022/01/09 05:05:54;;;;;;;23.23;4.25;;;5.70;99.90;;;;;;5053142;28;20123;-64
2022/01/09 05:08:20;;;;;;;21.30;4.18;;;5.70;99.90;;;;;;5035677;28;20387;-63
2022/01/09 05:10:45;;;;;;;29.35;5.47;;;5.70;99.90;;;;;;5035587;28;20044;-64
2022/01/09 05:13:11;;;;;;;19.73;5.13;;;5.60;99.90;;;;;;5034719;28;20049;-64
2022/01/09 05:15:36;;;;;;;21.55;4.43;;;5.60;99.90;;;;;;5053294;28;20155;-64
2022/01/09 05:18:04;;;;;;;28.38;4.75;;;5.70;99.90;;;;;;5035290;28;20044;-64
2022/01/09 05:20:30;;;;;;;16.05;3.45;;;5.60;99.90;;;;;;5034692;28;20519;-64
2022/01/09 05:22:55;;;;;;;22.35;4.70;;;5.60;99.90;;;;;;5056034;28;20135;-64
2022/01/09 05:25:21;;;;;;;20.92;4.38;;;5.60;99.90;;;;;;5055362;28;20060;-63
2022/01/09 05:27:47;;;;;;;18.85;3.60;;;5.70;99.90;;;;;;5047396;28;20421;-64
2022/01/09 05:30:13;;;;;;;17.73;3.20;;;5.60;99.90;;;;;;5038665;28;20053;-64
2022/01/09 05:32:39;;;;;;;19.30;3.88;;;5.60;99.90;;;;;;5069180;28;20052;-64
2022/01/09 05:35:05;;;;;;;25.25;4.55;;;5.60;99.90;;;;;;5053841;28;20546;-64
2022/01/09 05:37:30;;;;;;;28.33;5.20;;;5.60;99.90;;;;;;5059950;28;20098;-64
2022/01/09 05:39:56;;;;;;;17.00;3.50;;;5.60;99.90;;;;;;5052935;28;20052;-64
2022/01/09 05:42:22;;;;;;;23.83;4.60;;;5.60;99.90;;;;;;5038771;28;20384;-64
2022/01/09 05:44:48;;;;;;;16.55;2.85;;;5.60;99.90;;;;;;5051426;28;20048;-64
2022/01/09 05:47:14;;;;;;;92.43;8.57;;;5.60;99.90;;;;;;5034718;28;20904;-63
2022/01/09 05:49:39;;;;;;;15.88;3.13;;;5.50;99.90;;;;;;5038075;28;20087;-63
2022/01/09 05:52:05;;;;;;;18.98;3.55;;;5.50;99.90;;;;;;5054610;28;20076;-64
2022/01/09 05:54:31;;;;;;;16.52;3.58;;;5.50;99.90;;;;;;5072829;28;20131;-64
2022/01/09 05:56:57;;;;;;;24.95;4.10;;;5.50;99.90;;;;;;5053639;28;20139;-64
2022/01/09 05:59:22;;;;;;;24.85;4.55;;;5.50;99.90;;;;;;5042806;28;20053;-64
2022/01/09 06:01:48;;;;;;;19.33;3.90;;;5.50;99.90;;;;;;5034510;28;20051;-64
2022/01/09 06:04:13;;;;;;;18.90;4.78;;;5.50;99.90;;;;;;5044776;28;20491;-64
2022/01/09 06:06:42;;;;;;;35.03;6.15;;;5.50;99.90;;;;;;5072449;28;20060;-64
2022/01/09 06:09:09;;;;;;;20.35;3.70;;;5.50;99.90;;;;;;5053968;28;20040;-64
2022/01/09 06:11:35;;;;;;;32.13;4.35;;;5.50;99.90;;;;;;5044314;28;20048;-64
2022/01/09 06:14:01;;;;;;;20.30;4.30;;;5.50;99.90;;;;;;5064214;28;20037;-64
2022/01/09 06:16:29;;;;;;;23.52;4.47;;;5.50;99.90;;;;;;5060992;28;20053;-64
2022/01/09 06:18:55;;;;;;;20.33;3.70;;;5.40;99.90;;;;;;5034311;28;20056;-64
2022/01/09 06:21:20;;;;;;;16.95;3.53;;;5.50;99.90;;;;;;5033974;28;20049;-64
2022/01/09 06:23:46;;;;;;;32.55;5.65;;;5.50;99.90;;;;;;5069654;28;20048;-64
2022/01/09 06:26:11;;;;;;;13.60;2.40;;;5.50;99.90;;;;;;5071557;28;20075;-64
2022/01/09 06:28:37;;;;;;;33.75;4.45;;;5.40;99.90;;;;;;5071910;28;20062;-64
2022/01/09 06:31:03;;;;;;;18.40;2.88;;;5.40;99.90;;;;;;5053552;28;20094;-64
2022/01/09 06:33:28;;;;;;;17.80;3.15;;;5.40;99.90;;;;;;5053836;28;20867;-64
2022/01/09 06:35:54;;;;;;;17.58;3.80;;;5.40;99.90;;;;;;5043433;28;20045;-64
2022/01/09 06:38:19;;;;;;;51.47;5.57;;;5.40;99.90;;;;;;5058164;28;20053;-64
2022/01/09 06:40:45;;;;;;;18.13;2.85;;;5.40;99.90;;;;;;5043503;28;20047;-64
2022/01/09 06:43:10;;;;;;;16.45;3.97;;;5.30;99.90;;;;;;5033300;28;20060;-64
2022/01/09 06:45:36;;;;;;;15.65;3.50;;;5.30;99.90;;;;;;5033309;28;20094;-64
2022/01/09 06:48:02;;;;;;;15.57;3.65;;;5.30;99.90;;;;;;5033680;28;20510;-64
2022/01/09 06:50:28;;;;;;;27.08;5.45;;;5.30;99.90;;;;;;5051221;28;20427;-64
2022/01/09 06:52:53;;;;;;;16.35;2.63;;;5.30;99.90;;;;;;5033337;28;20033;-64
2022/01/09 06:55:19;;;;;;;13.95;2.90;;;5.30;99.90;;;;;;5065568;28;20049;-64
2022/01/09 06:57:45;;;;;;;16.17;3.35;;;5.20;99.90;;;;;;5068371;28;20048;-64
2022/01/09 07:00:12;;;;;;;28.77;3.20;;;5.20;99.90;;;;;;5043651;28;20041;-64
2022/01/09 07:02:38;;;;;;;16.80;4.13;;;5.20;99.90;;;;;;5033469;28;20061;-64
2022/01/09 07:05:05;;;;;;;13.35;3.17;;;5.20;99.90;;;;;;5050863;28;20055;-64
2022/01/09 07:07:30;;;;;;;26.17;4.70;;;5.20;99.90;;;;;;5032537;28;20055;-64
2022/01/09 07:09:56;;;;;;;21.02;3.28;;;5.10;99.90;;;;;;5052509;28;20048;-64
2022/01/09 07:12:21;;;;;;;14.98;2.65;;;5.10;99.90;;;;;;5037337;28;20041;-64
2022/01/09 07:14:47;;;;;;;14.98;3.30;;;5.10;99.90;;;;;;5050356;28;20126;-64
2022/01/09 07:17:13;;;;;;;10.45;2.72;;;5.10;99.90;;;;;;5045634;28;20084;-64
2022/01/09 07:19:38;;;;;;;17.80;3.60;;;5.10;99.90;;;;;;5045121;28;20052;-64
2022/01/09 07:22:05;;;;;;;17.00;2.75;;;5.10;99.90;;;;;;5032365;28;20053;-64
2022/01/09 07:24:31;;;;;;;21.77;4.00;;;5.10;99.90;;;;;;5050856;28;20128;-64
2022/01/09 07:26:56;;;;;;;21.65;4.57;;;5.10;99.90;;;;;;5050238;28;20112;-64
2022/01/09 07:29:22;;;;;;;16.27;3.72;;;5.10;99.90;;;;;;5032659;28;20048;-63
2022/01/09 07:31:51;;;;;;;17.80;3.25;;;5.00;99.90;;;;;;5050882;28;20037;-63
2022/01/09 07:34:20;;;;;;;11.38;2.50;;;5.00;99.90;;;;;;5031981;28;20159;-63
2022/01/09 07:36:46;;;;;;;11.52;2.88;;;4.90;99.90;;;;;;5032527;28;20491;-64
2022/01/09 07:39:11;;;;;;;17.10;4.07;;;4.90;99.90;;;;;;5050221;28;20053;-64
2022/01/09 07:41:37;;;;;;;18.98;3.05;;;4.90;99.90;;;;;;5031600;28;20059;-64
2022/01/09 07:44:03;;;;;;;14.60;2.00;;;4.90;99.90;;;;;;5032723;28;20056;-64
2022/01/09 07:46:31;;;;;;;10.23;2.85;;;4.80;99.90;;;;;;5054245;28;20040;-64
2022/01/09 07:48:57;;;;;;;15.40;3.15;;;4.80;99.90;;;;;;5040180;28;20446;-64
2022/01/09 07:51:23;;;;;;;22.52;2.88;;;4.70;99.90;;;;;;5062989;28;20080;-64
2022/01/09 07:53:48;;;;;;;9.68;2.30;;;4.80;99.90;;;;;;5052452;28;20057;-64
2022/01/09 07:56:14;;;;;;;8.93;2.72;;;4.70;99.90;;;;;;5051408;28;20415;-64
2022/01/09 07:58:40;;;;;;;8.68;2.60;;;4.70;99.90;;;;;;5054297;28;20040;-63
2022/01/09 08:01:06;;;;;;;19.73;3.10;;;4.70;99.90;;;;;;5032250;28;20127;-64
2022/01/09 08:03:32;;;;;;;20.45;2.83;;;4.70;99.90;;;;;;5033567;28;20488;-64
2022/01/09 08:05:57;;;;;;;12.95;2.70;;;4.60;99.90;;;;;;5057347;28;20483;-64
2022/01/09 08:08:23;;;;;;;22.88;4.03;;;4.60;99.90;;;;;;5056785;28;20048;-64
2022/01/09 08:10:49;;;;;;;14.43;2.28;;;4.60;99.90;;;;;;5069607;28;20501;-64
2022/01/09 08:13:14;;;;;;;13.40;3.47;;;4.60;99.90;;;;;;5051236;28;20057;-64
2022/01/09 08:15:40;;;;;;;15.05;2.85;;;4.60;99.90;;;;;;5036435;28;20099;-64
2022/01/09 08:18:06;;;;;;;10.25;2.50;;;4.50;99.90;;;;;;5035092;28;20056;-64
2022/01/09 08:20:32;;;;;;;20.48;2.47;;;4.60;99.90;;;;;;5038376;28;20049;-64
2022/01/09 08:22:58;;;;;;;14.73;4.10;;;4.50;99.90;;;;;;5049301;28;20056;-64
2022/01/09 08:25:23;;;;;;;8.48;1.77;;;4.50;99.90;;;;;;5052693;28;20457;-64
2022/01/09 08:27:49;;;;;;;11.45;2.47;;;4.50;99.90;;;;;;5054127;28;20487;-64
2022/01/09 08:30:20;;;;;;;10.65;2.75;;;4.50;99.90;;;;;;5035424;28;20049;-64
2022/01/09 08:32:48;;;;;;;12.95;2.83;;;4.50;99.90;;;;;;5054082;28;20063;-64
2022/01/09 08:35:13;;;;;;;17.00;2.75;;;4.50;99.90;;;;;;5035696;28;20518;-64
2022/01/09 08:37:44;;;;;;;10.60;2.65;;;4.50;99.90;;;;;;5053236;28;20056;-64
2022/01/09 08:40:11;;;;;;;14.57;3.10;;;4.50;99.90;;;;;;5053774;28;20099;-63
2022/01/09 08:42:38;;;;;;;14.18;3.13;;;4.50;99.90;;;;;;5035742;28;20072;-64
2022/01/09 08:45:04;;;;;;;7.55;2.40;;;4.50;99.90;;;;;;5052461;28;20060;-64
2022/01/09 08:47:30;;;;;;;15.88;2.75;;;4.50;99.90;;;;;;5041723;28;20045;-64
2022/01/09 08:49:55;;;;;;;17.95;3.53;;;4.50;99.90;;;;;;5054338;28;20041;-64
2022/01/09 08:52:21;;;;;;;12.23;2.55;;;4.60;99.90;;;;;;5056119;28;20045;-64
2022/01/09 08:54:48;;;;;;;15.25;3.22;;;4.60;99.90;;;;;;5035821;28;20053;-64
2022/01/09 08:57:14;;;;;;;14.98;2.45;;;4.60;99.90;;;;;;5053506;28;20041;-64
2022/01/09 08:59:39;;;;;;;13.73;2.97;;;4.60;99.90;;;;;;5061450;28;20051;-64
2022/01/09 09:02:05;;;;;;;11.50;2.80;;;4.60;99.90;;;;;;5066238;28;20044;-64
2022/01/09 09:04:30;;;;;;;21.90;2.67;;;4.60;99.90;;;;;;5041162;28;20127;-64
2022/01/09 09:06:56;;;;;;;15.70;2.95;;;4.70;99.90;;;;;;5045429;28;20056;-64
2022/01/09 09:09:22;;;;;;;22.92;3.95;;;4.70;99.90;;;;;;5073128;28;20036;-64
2022/01/09 09:11:48;;;;;;;11.95;2.03;;;4.70;99.90;;;;;;5055243;28;20051;-64
2022/01/09 09:14:14;;;;;;;13.50;2.20;;;4.80;99.90;;;;;;5054064;28;20045;-64
2022/01/09 09:16:40;;;;;;;8.45;2.00;;;4.80;99.90;;;;;;5073047;28;20110;-64
2022/01/09 09:19:05;;;;;;;14.82;2.95;;;4.80;99.90;;;;;;5064218;28;20045;-64
2022/01/09 09:21:31;;;;;;;11.88;2.38;;;4.90;99.90;;;;;;5045302;28;20097;-63
2022/01/09 09:23:57;;;;;;;15.15;2.75;;;4.90;99.90;;;;;;5039926;28;20503;-63
2022/01/09 09:26:22;;;;;;;17.67;3.20;;;4.90;99.90;;;;;;5043665;28;20059;-66
2022/01/09 09:28:48;;;;;;;9.73;2.35;;;4.90;99.90;;;;;;5054121;28;20127;-65
2022/01/09 09:31:14;;;;;;;8.45;1.67;;;4.90;99.90;;;;;;5059039;28;20041;-64
2022/01/09 09:33:39;;;;;;;13.55;2.90;;;4.90;99.90;;;;;;5046180;28;20132;-65
2022/01/09 09:36:05;;;;;;;4.90;1.63;;;4.90;99.90;;;;;;5072150;28;20426;-63
2022/01/09 09:38:31;;;;;;;9.30;2.35;;;4.90;99.90;;;;;;5068505;28;20052;-65
2022/01/09 09:40:58;;;;;;;8.98;2.00;;;4.90;99.90;;;;;;5065903;28;20092;-64
2022/01/09 09:43:24;;;;;;;15.35;2.30;;;5.00;99.90;;;;;;5041849;28;20052;-64
2022/01/09 09:45:51;;;;;;;9.82;2.00;;;4.90;99.90;;;;;;5054562;28;20400;-64
2022/01/09 09:48:17;;;;;;;10.57;2.30;;;5.00;99.90;;;;;;5051116;28;20056;-64
2022/01/09 09:50:43;;;;;;;6.85;1.48;;;5.00;99.90;;;;;;5058600;28;20037;-65
2022/01/09 09:53:08;;;;;;;8.85;1.10;;;5.00;99.90;;;;;;5053957;28;20045;-65
2022/01/09 09:55:34;;;;;;;8.90;1.20;;;5.00;99.90;;;;;;5071135;28;20060;-66
2022/01/09 09:57:59;;;;;;;7.97;1.75;;;5.10;99.90;;;;;;5072023;28;20060;-65
2022/01/09 10:00:25;;;;;;;14.02;2.55;;;5.10;99.90;;;;;;5053324;28;20048;-66
2022/01/09 10:02:57;;;;;;;8.98;1.20;;;5.10;99.90;;;;;;5070624;28;20048;-66
2022/01/09 10:05:28;;;;;;;19.17;3.25;;;5.10;99.90;;;;;;5051286;28;20131;-66
2022/01/09 10:08:05;;;;;;;13.25;2.20;;;5.10;99.90;;;;;;5071239;28;20060;-65
2022/01/09 10:10:32;;;;;;;6.82;2.30;;;5.20;99.90;;;;;;5054185;28;20495;-65
2022/01/09 10:13:06;;;;;;;13.13;2.47;;;5.20;99.90;;;;;;5045111;28;20048;-65
2022/01/09 10:15:49;;;;;;;7.93;1.95;;;5.20;99.90;;;;;;5059538;28;20098;-66
2022/01/09 10:18:40;;;;;;;6.55;2.08;;;5.20;99.90;;;;;;5060456;28;20044;-65
2022/01/09 10:21:08;;;;;;;12.02;2.53;;;5.20;99.90;;;;;;5060788;28;20136;-64
2022/01/09 10:23:34;;;;;;;10.10;2.30;;;5.20;99.90;;;;;;5072083;28;20454;-65
2022/01/09 10:26:11;;;;;;;5.55;1.35;;;5.20;99.90;;;;;;5054329;28;20135;-65
2022/01/09 10:28:41;;;;;;;11.68;3.08;;;5.20;99.90;;;;;;5054010;28;20098;-65
2022/01/09 10:31:17;;;;;;;5.47;2.00;;;5.20;99.90;;;;;;5043774;28;20045;-66
2022/01/09 10:34:01;;;;;;;9.57;2.75;;;5.20;99.90;;;;;;5033355;28;20056;-66
2022/01/09 10:36:39;;;;;;;12.48;2.20;;;5.20;99.90;;;;;;5050418;28;20056;-66
2022/01/09 10:39:10;;;;;;;8.00;2.30;;;5.20;99.90;;;;;;5033565;28;20065;-69
2022/01/09 10:41:45;;;;;;;14.88;3.78;;;5.30;99.90;;;;;;5051432;28;20056;-66
2022/01/09 10:44:15;;;;;;;14.40;2.80;;;5.30;99.90;;;;;;5043613;28;20049;-66
2022/01/09 10:46:51;;;;;;;12.73;2.50;;;5.30;99.90;;;;;;5050915;28;20490;-66
2022/01/09 10:49:17;;;;;;;10.27;3.00;;;5.30;99.90;;;;;;5041242;28;20044;-66
2022/01/09 10:51:42;;;;;;;13.70;2.70;;;5.40;99.90;;;;;;5040447;28;20437;-66
2022/01/09 10:54:08;;;;;;;13.80;2.78;;;5.40;99.90;;;;;;5051882;28;20075;-66
2022/01/09 10:56:33;;;;;;;11.90;2.90;;;5.40;99.90;;;;;;5058523;28;20033;-66
2022/01/09 10:58:59;;;;;;;15.75;2.85;;;5.50;99.90;;;;;;5055627;28;20051;-66
2022/01/09 11:01:32;;;;;;;8.88;2.47;;;5.50;99.90;;;;;;5066048;28;20055;-66
2022/01/09 11:04:06;;;;;;;19.40;3.15;;;5.50;99.90;;;;;;5043043;28;20098;-66
2022/01/09 11:06:35;;;;;;;13.07;2.22;;;5.50;99.90;;;;;;5035552;28;20508;-66
2022/01/09 11:09:03;;;;;;;8.23;2.30;;;5.50;99.90;;;;;;5052269;28;20467;-66
2022/01/09 11:11:36;;;;;;;11.65;2.08;;;5.50;99.90;;;;;;5051446;28;20052;-66
2022/01/09 11:14:07;;;;;;;6.40;2.13;;;5.50;99.90;;;;;;5052008;28;20048;-66
2022/01/09 11:16:40;;;;;;;6.03;1.73;;;5.50;99.90;;;;;;5069454;28;20543;-66
2022/01/09 11:19:36;;;;;;;11.18;2.38;;;5.50;99.90;;;;;;5065903;28;20052;-66
2022/01/09 11:22:05;;;;;;;9.95;2.13;;;5.50;99.90;;;;;;5030349;28;20063;-66
2022/01/09 11:25:09;;;;;;;17.05;2.53;;;5.50;99.90;;;;;;5069319;28;20044;-66
2022/01/09 11:27:46;;;;;;;12.25;2.22;;;5.60;99.90;;;;;;5054505;28;20136;-66
2022/01/09 11:30:15;;;;;;;12.30;2.95;;;5.70;99.90;;;;;;5042679;28;20037;-66
2022/01/09 11:33:05;;;;;;;17.50;3.20;;;5.80;99.90;;;;;;5067359;28;20055;-66
2022/01/09 11:35:44;;;;;;;9.77;2.42;;;5.90;99.90;;;;;;5047126;28;20488;-66
2022/01/09 11:38:22;;;;;;;10.60;2.83;;;6.00;99.90;;;;;;5031813;28;20088;-66
2022/01/09 11:40:48;;;;;;;7.70;2.40;;;6.00;99.90;;;;;;5038190;28;20106;-66
2022/01/09 11:43:18;;;;;;;17.80;3.30;;;6.10;99.90;;;;;;5038492;28;20072;-66
2022/01/09 11:45:43;;;;;;;9.02;1.98;;;6.10;99.90;;;;;;5049657;28;20045;-66
2022/01/09 11:48:11;;;;;;;6.60;1.83;;;6.10;99.90;;;;;;5040060;28;20052;-66
2022/01/09 11:50:57;;;;;;;11.60;2.03;;;6.20;99.90;;;;;;5048861;28;20105;-66
2022/01/09 11:53:24;;;;;;;7.05;2.22;;;6.20;99.90;;;;;;5050488;28;20055;-66
2022/01/09 11:55:50;;;;;;;14.10;3.53;;;6.40;99.90;;;;;;5068837;28;20468;-67
2022/01/09 11:58:19;;;;;;;8.60;2.47;;;6.50;99.90;;;;;;5048674;28;20072;-66
2022/01/09 12:00:45;;;;;;;11.70;2.17;;;6.70;99.90;;;;;;5060056;28;20443;-66
2022/01/09 12:03:26;;;;;;;8.68;1.80;;;6.00;99.90;;;;;;5038749;28;20056;-66
2022/01/09 12:06:10;;;;;;;7.25;2.17;;;6.80;99.90;;;;;;5045351;28;20036;-66
2022/01/09 12:08:56;;;;;;;7.13;2.40;;;6.70;99.90;;;;;;5040278;28;20048;-66
2022/01/09 12:11:21;;;;;;;8.70;2.33;;;6.70;99.90;;;;;;5032512;28;20384;-67
2022/01/09 12:13:48;;;;;;;13.15;2.05;;;6.70;99.90;;;;;;5033941;28;20056;-66
2022/01/09 12:16:53;;;;;;;7.32;2.00;;;6.70;99.90;;;;;;5050186;28;20113;-66
2022/01/09 12:20:07;;;;;;;9.73;2.13;;;6.70;99.90;;;;;;5049577;28;20056;-69
2022/01/09 12:22:51;;;;;;;5.55;1.30;;;6.70;99.90;;;;;;5038035;28;20059;-68
2022/01/09 12:25:32;;;;;;;9.20;2.83;;;6.60;99.90;;;;;;5042926;28;20047;-69
2022/01/09 12:28:09;;;;;;;12.68;2.25;;;6.70;99.90;;;;;;5040492;28;20048;-69
2022/01/09 12:30:44;;;;;;;10.30;2.47;;;6.70;99.90;;;;;;5038661;28;20565;-69
2022/01/09 12:33:22;;;;;;;10.80;2.53;;;6.90;99.90;;;;;;5036035;28;20048;-69
2022/01/09 12:35:51;;;;;;;13.23;2.45;;;7.00;99.90;;;;;;5038482;28;20130;-68
2022/01/09 12:38:19;;;;;;;8.40;2.33;;;7.10;99.90;;;;;;5039197;28;20079;-68
2022/01/09 12:40:59;;;;;;;8.00;1.60;;;7.20;99.90;;;;;;5038750;28;20073;-68
2022/01/09 12:43:26;;;;;;;12.43;2.30;;;7.10;99.90;;;;;;5055741;28;20163;-68
2022/01/09 12:45:52;;;;;;;7.97;2.30;;;7.10;99.90;;;;;;5051729;28;20082;-68
2022/01/09 12:48:29;;;;;;;12.05;2.47;;;7.00;99.90;;;;;;5035268;28;20060;-68
2022/01/09 12:51:05;;;;;;;13.88;2.70;;;6.90;99.90;;;;;;5030062;28;20052;-69
2022/01/09 12:53:43;;;;;;;10.77;2.00;;;6.90;99.90;;;;;;5043056;28;20071;-69